sensor_id;sensor_type;location;lat;lon;timestamp;pressure;altitude;pressure_sealevel;temperature;humidity
46574;BME280;32299;53.366;-1.544;2022-09-09T00:01:47;97679.11;;;19.00;48.69
46574;BME280;32299;53.366;-1.544;2022-09-09T00:04:24;97678.51;;;18.99;48.72
46574;BME280;32299;53.366;-1.544;2022-09-09T00:07:01;97678.49;;;19.01;48.74
46574;BME280;32299;53.366;-1.544;2022-09-09T00:09:34;97679.92;;;19.00;48.71
46574;BME280;32299;53.366;-1.544;2022-09-09T00:12:06;97684.20;;;19.00;48.71
46574;BME280;32299;53.366;-1.544;2022-09-09T00:14:43;97684.20;;;18.98;48.71
46574;BME280;32299;53.366;-1.544;2022-09-09T00:17:17;97683.02;;;18.97;48.75
46574;BME280;32299;53.366;-1.544;2022-09-09T00:19:53;97684.85;;;18.99;48.75
46574;BME280;32299;53.366;-1.544;2022-09-09T00:22:23;97685.09;;;18.98;48.79
46574;BME280;32299;53.366;-1.544;2022-09-09T00:24:53;97688.32;;;18.99;48.71
46574;BME280;32299;53.366;-1.544;2022-09-09T00:27:26;97689.52;;;18.79;48.71
46574;BME280;32299;53.366;-1.544;2022-09-09T00:29:58;97687.57;;;19.08;48.55
46574;BME280;32299;53.366;-1.544;2022-09-09T00:32:29;97691.27;;;19.07;48.61
46574;BME280;32299;53.366;-1.544;2022-09-09T00:35:02;97689.45;;;19.02;48.69
46574;BME280;32299;53.366;-1.544;2022-09-09T00:37:30;97689.74;;;18.99;48.80
46574;BME280;32299;53.366;-1.544;2022-09-09T00:40:02;97689.65;;;18.99;48.81
46574;BME280;32299;53.366;-1.544;2022-09-09T00:42:41;97689.08;;;18.97;48.83
46574;BME280;32299;53.366;-1.544;2022-09-09T00:45:25;97686.99;;;18.96;48.86
46574;BME280;32299;53.366;-1.544;2022-09-09T00:47:58;97685.02;;;19.23;48.86
46574;BME280;32299;53.366;-1.544;2022-09-09T00:50:38;97685.70;;;18.96;48.90
46574;BME280;32299;53.366;-1.544;2022-09-09T00:53:20;97685.29;;;18.94;48.93
46574;BME280;32299;53.366;-1.544;2022-09-09T00:55:55;97685.83;;;18.93;48.94
46574;BME280;32299;53.366;-1.544;2022-09-09T00:58:27;97686.37;;;19.42;48.93
46574;BME280;32299;53.366;-1.544;2022-09-09T01:00:58;97688.25;;;18.94;48.96
46574;BME280;32299;53.366;-1.544;2022-09-09T01:03:34;97688.54;;;18.95;48.93
46574;BME280;32299;53.366;-1.544;2022-09-09T01:06:11;97687.58;;;18.95;48.83
46574;BME280;32299;53.366;-1.544;2022-09-09T01:08:59;97685.90;;;18.92;48.90
46574;BME280;32299;53.366;-1.544;2022-09-09T01:11:34;97685.17;;;18.91;48.90
46574;BME280;32299;53.366;-1.544;2022-09-09T01:14:13;97683.45;;;18.92;48.85
46574;BME280;32299;53.366;-1.544;2022-09-09T01:16:44;97682.48;;;18.91;49.01
46574;BME280;32299;53.366;-1.544;2022-09-09T01:19:18;97682.71;;;18.93;48.90
46574;BME280;32299;53.366;-1.544;2022-09-09T01:21:54;97686.75;;;18.93;48.99
46574;BME280;32299;53.366;-1.544;2022-09-09T01:24:30;97685.89;;;18.91;48.95
46574;BME280;32299;53.366;-1.544;2022-09-09T01:27:03;97687.29;;;18.92;48.99
46574;BME280;32299;53.366;-1.544;2022-09-09T01:29:33;97686.70;;;18.90;48.94
46574;BME280;32299;53.366;-1.544;2022-09-09T01:32:01;97687.90;;;18.91;48.93
46574;BME280;32299;53.366;-1.544;2022-09-09T01:34:33;97690.34;;;18.91;48.91
46574;BME280;32299;53.366;-1.544;2022-09-09T01:37:06;97689.63;;;18.92;48.97
46574;BME280;32299;53.366;-1.544;2022-09-09T01:39:35;97690.14;;;18.92;48.97
46574;BME280;32299;53.366;-1.544;2022-09-09T01:42:05;97687.61;;;18.93;48.90
46574;BME280;32299;53.366;-1.544;2022-09-09T01:44:33;97686.99;;;18.92;48.89
46574;BME280;32299;53.366;-1.544;2022-09-09T01:47:00;97684.33;;;18.90;49.00
46574;BME280;32299;53.366;-1.544;2022-09-09T01:49:28;97685.20;;;18.90;48.95
46574;BME280;32299;53.366;-1.544;2022-09-09T01:51:56;97685.78;;;18.92;48.93
46574;BME280;32299;53.366;-1.544;2022-09-09T01:54:27;97682.76;;;18.91;48.93
46574;BME280;32299;53.366;-1.544;2022-09-09T01:57:09;97683.64;;;18.90;48.94
46574;BME280;32299;53.366;-1.544;2022-09-09T01:59:48;97682.42;;;18.87;49.01
46574;BME280;32299;53.366;-1.544;2022-09-09T02:02:18;97683.62;;;18.89;49.07
46574;BME280;32299;53.366;-1.544;2022-09-09T02:04:49;97678.71;;;18.88;48.98
46574;BME280;32299;53.366;-1.544;2022-09-09T02:07:31;97676.77;;;19.15;49.00
46574;BME280;32299;53.366;-1.544;2022-09-09T02:10:11;97674.97;;;18.86;49.00
46574;BME280;32299;53.366;-1.544;2022-09-09T02:12:43;97671.33;;;18.87;49.04
46574;BME280;32299;53.366;-1.544;2022-09-09T02:15:17;97668.44;;;18.88;49.02
46574;BME280;32299;53.366;-1.544;2022-09-09T02:17:46;97665.56;;;18.87;48.96
46574;BME280;32299;53.366;-1.544;2022-09-09T02:20:19;97669.38;;;18.88;48.93
46574;BME280;32299;53.366;-1.544;2022-09-09T02:22:49;97667.26;;;18.85;48.89
46574;BME280;32299;53.366;-1.544;2022-09-09T02:25:21;97670.41;;;18.86;48.93
46574;BME280;32299;53.366;-1.544;2022-09-09T02:27:50;97671.50;;;18.85;48.97
46574;BME280;32299;53.366;-1.544;2022-09-09T02:30:19;97673.92;;;18.85;48.85
46574;BME280;32299;53.366;-1.544;2022-09-09T02:32:49;97677.29;;;18.85;48.89
46574;BME280;32299;53.366;-1.544;2022-09-09T02:35:20;97679.06;;;18.84;48.93
46574;BME280;32299;53.366;-1.544;2022-09-09T02:37:51;97677.96;;;18.83;48.89
46574;BME280;32299;53.366;-1.544;2022-09-09T02:40:19;97681.87;;;18.84;48.81
46574;BME280;32299;53.366;-1.544;2022-09-09T02:42:48;97682.37;;;18.87;48.80
46574;BME280;32299;53.366;-1.544;2022-09-09T02:45:19;97681.87;;;18.87;48.88
46574;BME280;32299;53.366;-1.544;2022-09-09T02:47:52;97676.82;;;18.84;48.85
46574;BME280;32299;53.366;-1.544;2022-09-09T02:50:27;97679.98;;;19.09;48.84
46574;BME280;32299;53.366;-1.544;2022-09-09T02:53:06;97680.08;;;18.84;48.81
46574;BME280;32299;53.366;-1.544;2022-09-09T02:55:39;97684.37;;;18.84;48.79
46574;BME280;32299;53.366;-1.544;2022-09-09T02:58:09;97685.12;;;18.84;48.59
46574;BME280;32299;53.366;-1.544;2022-09-09T03:00:38;97686.33;;;18.83;48.59
46574;BME280;32299;53.366;-1.544;2022-09-09T03:03:07;97685.25;;;18.82;48.67
46574;BME280;32299;53.366;-1.544;2022-09-09T03:05:35;97686.76;;;19.30;48.63
46574;BME280;32299;53.366;-1.544;2022-09-09T03:08:02;97684.42;;;18.57;48.79
46574;BME280;32299;53.366;-1.544;2022-09-09T03:10:30;97682.57;;;19.05;48.82
46574;BME280;32299;53.366;-1.544;2022-09-09T03:12:57;97681.02;;;18.78;48.79
46574;BME280;32299;53.366;-1.544;2022-09-09T03:15:25;97680.75;;;18.78;48.83
46574;BME280;32299;53.366;-1.544;2022-09-09T03:17:52;97680.11;;;19.04;48.89
46574;BME280;32299;53.366;-1.544;2022-09-09T03:20:19;97678.95;;;18.77;48.89
46574;BME280;32299;53.366;-1.544;2022-09-09T03:22:46;97678.01;;;18.75;48.97
46574;BME280;32299;53.366;-1.544;2022-09-09T03:25:13;97677.20;;;18.75;48.95
46574;BME280;32299;53.366;-1.544;2022-09-09T03:27:41;97680.28;;;18.74;48.92
46574;BME280;32299;53.366;-1.544;2022-09-09T03:30:09;97683.51;;;19.01;49.01
46574;BME280;32299;53.366;-1.544;2022-09-09T03:32:36;97684.08;;;18.72;49.01
46574;BME280;32299;53.366;-1.544;2022-09-09T03:35:04;97686.25;;;18.72;49.07
46574;BME280;32299;53.366;-1.544;2022-09-09T03:37:31;97689.16;;;18.73;49.04
46574;BME280;32299;53.366;-1.544;2022-09-09T03:39:58;97689.45;;;18.99;49.14
46574;BME280;32299;53.366;-1.544;2022-09-09T03:42:26;97690.29;;;18.73;49.04
46574;BME280;32299;53.366;-1.544;2022-09-09T03:44:53;97692.17;;;18.72;49.02
46574;BME280;32299;53.366;-1.544;2022-09-09T03:47:21;97688.82;;;18.71;48.99
46574;BME280;32299;53.366;-1.544;2022-09-09T03:49:48;97686.57;;;18.97;49.01
46574;BME280;32299;53.366;-1.544;2022-09-09T03:52:15;97685.14;;;19.19;49.13
46574;BME280;32299;53.366;-1.544;2022-09-09T03:54:42;97686.21;;;18.69;49.00
46574;BME280;32299;53.366;-1.544;2022-09-09T03:57:09;97685.91;;;18.69;49.04
46574;BME280;32299;53.366;-1.544;2022-09-09T03:59:36;97688.71;;;18.71;49.02
46574;BME280;32299;53.366;-1.544;2022-09-09T04:02:04;97690.11;;;18.76;48.94
46574;BME280;32299;53.366;-1.544;2022-09-09T04:04:31;97693.04;;;18.78;48.84
46574;BME280;32299;53.366;-1.544;2022-09-09T04:06:58;97692.28;;;18.80;48.75
46574;BME280;32299;53.366;-1.544;2022-09-09T04:09:26;97693.92;;;18.81;48.82
46574;BME280;32299;53.366;-1.544;2022-09-09T04:11:53;97694.78;;;18.83;48.72
46574;BME280;32299;53.366;-1.544;2022-09-09T04:14:20;97694.07;;;18.85;48.75
46574;BME280;32299;53.366;-1.544;2022-09-09T04:16:47;97694.51;;;18.85;48.71
46574;BME280;32299;53.366;-1.544;2022-09-09T04:19:15;97692.29;;;18.86;48.68
46574;BME280;32299;53.366;-1.544;2022-09-09T04:21:42;97695.50;;;18.85;48.63
46574;BME280;32299;53.366;-1.544;2022-09-09T04:24:10;97690.79;;;18.84;48.63
46574;BME280;32299;53.366;-1.544;2022-09-09T04:26:38;97695.18;;;18.84;48.72
46574;BME280;32299;53.366;-1.544;2022-09-09T04:29:05;97696.31;;;18.88;48.67
46574;BME280;32299;53.366;-1.544;2022-09-09T04:31:33;97697.57;;;18.90;48.57
46574;BME280;32299;53.366;-1.544;2022-09-09T04:34:01;97699.90;;;18.90;48.49
46574;BME280;32299;53.366;-1.544;2022-09-09T04:36:28;97703.04;;;18.90;48.55
46574;BME280;32299;53.366;-1.544;2022-09-09T04:38:55;97704.78;;;18.89;48.69
46574;BME280;32299;53.366;-1.544;2022-09-09T04:41:22;97702.67;;;18.89;48.59
46574;BME280;32299;53.366;-1.544;2022-09-09T04:43:49;97702.67;;;18.89;48.50
46574;BME280;32299;53.366;-1.544;2022-09-09T04:46:17;97706.43;;;18.88;48.49
46574;BME280;32299;53.366;-1.544;2022-09-09T04:48:44;97708.16;;;18.86;48.62
46574;BME280;32299;53.366;-1.544;2022-09-09T04:51:12;97707.80;;;18.85;48.65
46574;BME280;32299;53.366;-1.544;2022-09-09T04:53:40;97712.43;;;18.86;48.66
46574;BME280;32299;53.366;-1.544;2022-09-09T04:56:09;97714.22;;;18.86;48.63
46574;BME280;32299;53.366;-1.544;2022-09-09T04:58:38;97714.67;;;18.86;48.64
46574;BME280;32299;53.366;-1.544;2022-09-09T05:01:06;97715.72;;;18.87;48.57
46574;BME280;32299;53.366;-1.544;2022-09-09T05:03:34;97715.75;;;18.86;48.60
46574;BME280;32299;53.366;-1.544;2022-09-09T05:06:04;97720.31;;;18.84;48.75
46574;BME280;32299;53.366;-1.544;2022-09-09T05:08:31;97723.62;;;18.84;48.57
46574;BME280;32299;53.366;-1.544;2022-09-09T05:10:58;97727.32;;;18.83;48.59
46574;BME280;32299;53.366;-1.544;2022-09-09T05:13:26;97730.45;;;18.81;48.70
46574;BME280;32299;53.366;-1.544;2022-09-09T05:15:54;97730.93;;;18.83;48.68
46574;BME280;32299;53.366;-1.544;2022-09-09T05:18:21;97731.06;;;18.83;48.65
46574;BME280;32299;53.366;-1.544;2022-09-09T05:20:49;97730.42;;;18.84;48.66
46574;BME280;32299;53.366;-1.544;2022-09-09T05:23:16;97731.42;;;18.84;48.60
46574;BME280;32299;53.366;-1.544;2022-09-09T05:25:43;97732.17;;;18.85;48.60
46574;BME280;32299;53.366;-1.544;2022-09-09T05:28:11;97732.58;;;18.86;48.63
46574;BME280;32299;53.366;-1.544;2022-09-09T05:30:38;97736.23;;;18.88;48.59
46574;BME280;32299;53.366;-1.544;2022-09-09T05:33:06;97734.38;;;18.88;48.57
46574;BME280;32299;53.366;-1.544;2022-09-09T05:35:33;97734.87;;;18.86;48.62
46574;BME280;32299;53.366;-1.544;2022-09-09T05:38:00;97737.50;;;18.79;48.72
46574;BME280;32299;53.366;-1.544;2022-09-09T05:40:27;97740.98;;;18.54;48.79
46574;BME280;32299;53.366;-1.544;2022-09-09T05:42:55;97742.58;;;18.77;48.76
46574;BME280;32299;53.366;-1.544;2022-09-09T05:45:26;97743.56;;;18.76;48.91
46574;BME280;32299;53.366;-1.544;2022-09-09T05:47:53;97745.34;;;18.77;48.85
46574;BME280;32299;53.366;-1.544;2022-09-09T05:50:20;97745.44;;;18.55;48.81
46574;BME280;32299;53.366;-1.544;2022-09-09T05:52:48;97746.40;;;18.79;48.74
46574;BME280;32299;53.366;-1.544;2022-09-09T05:55:15;97749.30;;;18.81;48.73
46574;BME280;32299;53.366;-1.544;2022-09-09T05:57:42;97752.89;;;18.82;48.72
46574;BME280;32299;53.366;-1.544;2022-09-09T06:00:10;97754.66;;;18.83;48.69
46574;BME280;32299;53.366;-1.544;2022-09-09T06:02:38;97755.13;;;18.82;48.70
46574;BME280;32299;53.366;-1.544;2022-09-09T06:05:06;97758.70;;;18.83;48.72
46574;BME280;32299;53.366;-1.544;2022-09-09T06:07:33;97760.70;;;19.10;48.74
46574;BME280;32299;53.366;-1.544;2022-09-09T06:10:01;97762.88;;;18.82;48.77
46574;BME280;32299;53.366;-1.544;2022-09-09T06:12:28;97766.25;;;18.83;48.69
46574;BME280;32299;53.366;-1.544;2022-09-09T06:14:55;97767.14;;;18.83;48.69
46574;BME280;32299;53.366;-1.544;2022-09-09T06:17:22;97768.66;;;18.84;48.63
46574;BME280;32299;53.366;-1.544;2022-09-09T06:19:50;97768.12;;;19.10;48.71
46574;BME280;32299;53.366;-1.544;2022-09-09T06:22:17;97769.18;;;19.11;48.71
46574;BME280;32299;53.366;-1.544;2022-09-09T06:24:44;97770.31;;;18.86;48.65
46574;BME280;32299;53.366;-1.544;2022-09-09T06:27:11;97773.93;;;18.86;48.66
46574;BME280;32299;53.366;-1.544;2022-09-09T06:29:38;97776.80;;;18.89;48.79
46574;BME280;32299;53.366;-1.544;2022-09-09T06:32:05;97779.98;;;18.91;48.75
46574;BME280;32299;53.366;-1.544;2022-09-09T06:34:32;97783.62;;;18.93;48.77
46574;BME280;32299;53.366;-1.544;2022-09-09T06:37:00;97787.61;;;18.94;48.78
46574;BME280;32299;53.366;-1.544;2022-09-09T06:39:27;97788.58;;;18.96;48.64
46574;BME280;32299;53.366;-1.544;2022-09-09T06:41:54;97787.62;;;18.97;48.69
46574;BME280;32299;53.366;-1.544;2022-09-09T06:44:21;97785.31;;;18.98;48.69
46574;BME280;32299;53.366;-1.544;2022-09-09T06:46:48;97789.41;;;19.00;48.74
46574;BME280;32299;53.366;-1.544;2022-09-09T06:49:15;97790.73;;;19.06;48.57
46574;BME280;32299;53.366;-1.544;2022-09-09T06:51:42;97790.12;;;19.07;48.61
46574;BME280;32299;53.366;-1.544;2022-09-09T06:54:10;97792.70;;;19.05;48.62
46574;BME280;32299;53.366;-1.544;2022-09-09T06:56:39;97795.66;;;19.04;48.64
46574;BME280;32299;53.366;-1.544;2022-09-09T06:59:07;97798.82;;;19.03;48.68
46574;BME280;32299;53.366;-1.544;2022-09-09T07:01:37;97799.93;;;19.03;48.69
46574;BME280;32299;53.366;-1.544;2022-09-09T07:04:05;97803.10;;;19.04;48.72
46574;BME280;32299;53.366;-1.544;2022-09-09T07:06:34;97803.93;;;18.79;48.69
46574;BME280;32299;53.366;-1.544;2022-09-09T07:09:03;97803.21;;;19.00;48.69
46574;BME280;32299;53.366;-1.544;2022-09-09T07:11:32;97805.77;;;19.00;48.84
46574;BME280;32299;53.366;-1.544;2022-09-09T07:14:00;97808.53;;;18.99;48.84
46574;BME280;32299;53.366;-1.544;2022-09-09T07:16:28;97809.05;;;18.98;48.86
46574;BME280;32299;53.366;-1.544;2022-09-09T07:18:56;97811.12;;;19.00;48.84
46574;BME280;32299;53.366;-1.544;2022-09-09T07:21:24;97815.75;;;19.01;48.74
46574;BME280;32299;53.366;-1.544;2022-09-09T07:23:52;97817.51;;;18.98;48.98
46574;BME280;32299;53.366;-1.544;2022-09-09T07:26:21;97816.10;;;18.96;48.96
46574;BME280;32299;53.366;-1.544;2022-09-09T07:28:49;97818.33;;;19.22;48.94
46574;BME280;32299;53.366;-1.544;2022-09-09T07:31:18;97819.07;;;18.73;48.98
46574;BME280;32299;53.366;-1.544;2022-09-09T07:33:46;97820.37;;;18.95;48.99
46574;BME280;32299;53.366;-1.544;2022-09-09T07:36:15;97820.47;;;18.95;49.11
46574;BME280;32299;53.366;-1.544;2022-09-09T07:38:45;97821.23;;;18.96;49.13
46574;BME280;32299;53.366;-1.544;2022-09-09T07:41:14;97824.50;;;18.99;49.14
46574;BME280;32299;53.366;-1.544;2022-09-09T07:43:44;97825.39;;;18.99;49.19
46574;BME280;32299;53.366;-1.544;2022-09-09T07:46:12;97827.40;;;19.00;49.21
46574;BME280;32299;53.366;-1.544;2022-09-09T07:48:43;97829.98;;;19.28;49.17
46574;BME280;32299;53.366;-1.544;2022-09-09T07:51:13;97835.54;;;19.03;49.17
46574;BME280;32299;53.366;-1.544;2022-09-09T07:53:40;97840.93;;;19.05;49.24
46574;BME280;32299;53.366;-1.544;2022-09-09T07:56:09;97844.31;;;19.07;49.29
46574;BME280;32299;53.366;-1.544;2022-09-09T07:58:37;97845.92;;;19.08;49.24
46574;BME280;32299;53.366;-1.544;2022-09-09T08:01:08;97849.67;;;19.10;49.28
46574;BME280;32299;53.366;-1.544;2022-09-09T08:03:36;97850.28;;;18.89;49.10
46574;BME280;32299;53.366;-1.544;2022-09-09T08:06:05;97851.61;;;19.38;49.19
46574;BME280;32299;53.366;-1.544;2022-09-09T08:08:33;97853.01;;;19.13;49.14
46574;BME280;32299;53.366;-1.544;2022-09-09T08:11:04;97857.22;;;19.13;49.13
46574;BME280;32299;53.366;-1.544;2022-09-09T08:13:31;97856.76;;;19.16;49.04
46574;BME280;32299;53.366;-1.544;2022-09-09T08:16:05;97857.82;;;19.16;49.13
46574;BME280;32299;53.366;-1.544;2022-09-09T08:18:33;97860.06;;;19.17;49.19
46574;BME280;32299;53.366;-1.544;2022-09-09T08:21:09;97864.27;;;19.20;49.17
46574;BME280;32299;53.366;-1.544;2022-09-09T08:23:37;97865.79;;;19.20;49.23
46574;BME280;32299;53.366;-1.544;2022-09-09T08:26:06;97867.56;;;19.20;49.17
46574;BME280;32299;53.366;-1.544;2022-09-09T08:28:34;97868.90;;;19.20;49.19
46574;BME280;32299;53.366;-1.544;2022-09-09T08:31:11;97871.45;;;19.22;49.23
46574;BME280;32299;53.366;-1.544;2022-09-09T08:33:39;97874.80;;;19.24;49.19
46574;BME280;32299;53.366;-1.544;2022-09-09T08:36:09;97875.97;;;19.26;49.17
46574;BME280;32299;53.366;-1.544;2022-09-09T08:38:36;97877.69;;;19.28;49.17
46574;BME280;32299;53.366;-1.544;2022-09-09T08:41:15;97882.28;;;19.30;49.17
46574;BME280;32299;53.366;-1.544;2022-09-09T08:44:00;97885.91;;;19.29;49.21
46574;BME280;32299;53.366;-1.544;2022-09-09T08:46:33;97887.30;;;19.31;49.20
46574;BME280;32299;53.366;-1.544;2022-09-09T08:49:13;97890.55;;;19.32;49.29
46574;BME280;32299;53.366;-1.544;2022-09-09T08:51:45;97893.92;;;19.35;49.22
46574;BME280;32299;53.366;-1.544;2022-09-09T08:54:13;97895.97;;;19.38;49.31
46574;BME280;32299;53.366;-1.544;2022-09-09T08:56:41;97899.41;;;19.40;49.37
46574;BME280;32299;53.366;-1.544;2022-09-09T08:59:12;97900.25;;;19.43;49.31
46574;BME280;32299;53.366;-1.544;2022-09-09T09:01:52;97903.45;;;19.43;49.20
46574;BME280;32299;53.366;-1.544;2022-09-09T09:04:33;97904.40;;;19.44;49.18
46574;BME280;32299;53.366;-1.544;2022-09-09T09:07:13;97910.67;;;19.46;49.13
46574;BME280;32299;53.366;-1.544;2022-09-09T09:09:50;97912.12;;;19.26;49.18
46574;BME280;32299;53.366;-1.544;2022-09-09T09:12:21;97912.49;;;19.26;49.19
46574;BME280;32299;53.366;-1.544;2022-09-09T09:14:49;97913.61;;;19.51;49.12
46574;BME280;32299;53.366;-1.544;2022-09-09T09:17:18;97915.70;;;19.53;49.24
46574;BME280;32299;53.366;-1.544;2022-09-09T09:19:47;97916.31;;;19.56;49.26
46574;BME280;32299;53.366;-1.544;2022-09-09T09:22:19;97916.68;;;19.57;49.18
46574;BME280;32299;53.366;-1.544;2022-09-09T09:24:52;97918.61;;;19.39;49.36
46574;BME280;32299;53.366;-1.544;2022-09-09T09:27:31;97919.78;;;19.64;49.55
46574;BME280;32299;53.366;-1.544;2022-09-09T09:30:02;97922.84;;;19.47;49.61
46574;BME280;32299;53.366;-1.544;2022-09-09T09:32:34;97925.47;;;19.52;49.62
46574;BME280;32299;53.366;-1.544;2022-09-09T09:35:06;97925.63;;;19.55;49.73
46574;BME280;32299;53.366;-1.544;2022-09-09T09:37:37;97929.24;;;19.82;49.69
46574;BME280;32299;53.366;-1.544;2022-09-09T09:40:12;97933.21;;;19.40;49.59
46574;BME280;32299;53.366;-1.544;2022-09-09T09:42:49;97934.90;;;19.44;49.55
46574;BME280;32299;53.366;-1.544;2022-09-09T09:45:27;97939.00;;;19.47;49.38
46574;BME280;32299;53.366;-1.544;2022-09-09T09:48:05;97942.36;;;19.78;49.22
46574;BME280;32299;53.366;-1.544;2022-09-09T09:50:33;97945.95;;;19.82;49.06
46574;BME280;32299;53.366;-1.544;2022-09-09T09:53:03;97946.87;;;19.59;49.03
46574;BME280;32299;53.366;-1.544;2022-09-09T09:55:33;97948.47;;;19.87;49.02
46574;BME280;32299;53.366;-1.544;2022-09-09T09:58:03;97950.86;;;19.88;49.15
46574;BME280;32299;53.366;-1.544;2022-09-09T10:00:32;97949.91;;;20.15;49.20
46574;BME280;32299;53.366;-1.544;2022-09-09T10:03:01;97951.74;;;20.00;49.23
46574;BME280;32299;53.366;-1.544;2022-09-09T10:05:29;97954.05;;;20.07;49.39
46574;BME280;32299;53.366;-1.544;2022-09-09T10:08:08;97954.75;;;19.90;49.50
46574;BME280;32299;53.366;-1.544;2022-09-09T10:10:47;97955.14;;;20.02;50.18
46574;BME280;32299;53.366;-1.544;2022-09-09T10:13:19;97959.13;;;20.18;50.27
46574;BME280;32299;53.366;-1.544;2022-09-09T10:16:00;97957.59;;;20.34;49.90
46574;BME280;32299;53.366;-1.544;2022-09-09T10:18:43;97958.03;;;20.49;50.12
46574;BME280;32299;53.366;-1.544;2022-09-09T10:21:21;97957.00;;;20.67;50.27
46574;BME280;32299;53.366;-1.544;2022-09-09T10:24:08;97960.26;;;20.64;50.65
46574;BME280;32299;53.366;-1.544;2022-09-09T10:26:46;97959.36;;;20.58;50.47
46574;BME280;32299;53.366;-1.544;2022-09-09T10:29:26;97958.43;;;20.76;49.62
46574;BME280;32299;53.366;-1.544;2022-09-09T10:32:10;97962.24;;;20.89;48.48
46574;BME280;32299;53.366;-1.544;2022-09-09T10:34:55;97961.61;;;21.21;48.58
46574;BME280;32299;53.366;-1.544;2022-09-09T10:37:32;97964.30;;;21.11;48.28
46574;BME280;32299;53.366;-1.544;2022-09-09T10:40:12;97963.08;;;21.25;48.84
46574;BME280;32299;53.366;-1.544;2022-09-09T10:42:42;97957.80;;;21.39;48.72
46574;BME280;32299;53.366;-1.544;2022-09-09T10:45:17;97956.95;;;21.56;48.94
46574;BME280;32299;53.366;-1.544;2022-09-09T10:47:57;97957.29;;;21.41;48.72
46574;BME280;32299;53.366;-1.544;2022-09-09T10:50:38;97960.34;;;21.73;47.65
46574;BME280;32299;53.366;-1.544;2022-09-09T10:53:12;97964.98;;;21.58;47.78
46574;BME280;32299;53.366;-1.544;2022-09-09T10:55:43;97968.40;;;21.90;47.74
46574;BME280;32299;53.366;-1.544;2022-09-09T10:58:16;97966.51;;;21.65;46.92
46574;BME280;32299;53.366;-1.544;2022-09-09T11:00:49;97967.28;;;22.01;47.48
46574;BME280;32299;53.366;-1.544;2022-09-09T11:03:20;97969.80;;;21.86;47.85
46574;BME280;32299;53.366;-1.544;2022-09-09T11:05:53;97971.30;;;22.02;46.94
46574;BME280;32299;53.366;-1.544;2022-09-09T11:08:25;97970.72;;;21.91;47.56
46574;BME280;32299;53.366;-1.544;2022-09-09T11:10:58;97963.02;;;22.01;46.69
46574;BME280;32299;53.366;-1.544;2022-09-09T11:13:34;97958.50;;;22.16;47.31
46574;BME280;32299;53.366;-1.544;2022-09-09T11:16:14;97960.17;;;22.35;47.67
46574;BME280;32299;53.366;-1.544;2022-09-09T11:18:42;97962.22;;;22.51;46.66
46574;BME280;32299;53.366;-1.544;2022-09-09T11:21:23;97957.93;;;22.66;45.73
46574;BME280;32299;53.366;-1.544;2022-09-09T11:23:55;97960.26;;;22.61;47.22
46574;BME280;32299;53.366;-1.544;2022-09-09T11:26:29;97961.11;;;23.02;47.58
46574;BME280;32299;53.366;-1.544;2022-09-09T11:29:14;97964.46;;;23.19;47.11
46574;BME280;32299;53.366;-1.544;2022-09-09T11:31:57;97967.16;;;22.90;47.07
46574;BME280;32299;53.366;-1.544;2022-09-09T11:34:37;97966.82;;;23.29;46.83
46574;BME280;32299;53.366;-1.544;2022-09-09T11:37:21;97960.27;;;23.36;46.18
46574;BME280;32299;53.366;-1.544;2022-09-09T11:40:04;97962.97;;;23.23;45.63
46574;BME280;32299;53.366;-1.544;2022-09-09T11:42:35;97966.93;;;23.36;45.69
46574;BME280;32299;53.366;-1.544;2022-09-09T11:45:19;97967.50;;;23.67;45.65
46574;BME280;32299;53.366;-1.544;2022-09-09T11:47:52;97972.46;;;23.43;45.03
46574;BME280;32299;53.366;-1.544;2022-09-09T11:50:36;97973.46;;;23.43;43.96
46574;BME280;32299;53.366;-1.544;2022-09-09T11:53:21;97974.60;;;23.37;44.35
46574;BME280;32299;53.366;-1.544;2022-09-09T11:56:11;97976.57;;;23.33;43.62
46574;BME280;32299;53.366;-1.544;2022-09-09T11:58:42;97983.26;;;23.48;43.30
46574;BME280;32299;53.366;-1.544;2022-09-09T12:01:34;97988.27;;;23.17;43.80
46574;BME280;32299;53.366;-1.544;2022-09-09T12:04:12;97991.52;;;23.13;44.49
46574;BME280;32299;53.366;-1.544;2022-09-09T12:06:44;97992.11;;;23.08;44.26
46574;BME280;32299;53.366;-1.544;2022-09-09T12:09:33;97993.77;;;23.32;44.60
46574;BME280;32299;53.366;-1.544;2022-09-09T12:12:20;97990.42;;;23.45;44.39
46574;BME280;32299;53.366;-1.544;2022-09-09T12:14:57;97984.99;;;23.22;44.30
46574;BME280;32299;53.366;-1.544;2022-09-09T12:17:26;97982.19;;;23.00;45.34
46574;BME280;32299;53.366;-1.544;2022-09-09T12:20:06;97980.55;;;23.09;45.84
46574;BME280;32299;53.366;-1.544;2022-09-09T12:22:43;97975.48;;;23.58;45.47
46574;BME280;32299;53.366;-1.544;2022-09-09T12:25:20;97977.10;;;23.80;45.95
46574;BME280;32299;53.366;-1.544;2022-09-09T12:28:03;97977.30;;;23.72;44.34
46574;BME280;32299;53.366;-1.544;2022-09-09T12:30:37;97979.04;;;23.77;45.92
46574;BME280;32299;53.366;-1.544;2022-09-09T12:33:11;97987.22;;;24.23;44.47
46574;BME280;32299;53.366;-1.544;2022-09-09T12:35:39;97988.64;;;24.19;44.18
46574;BME280;32299;53.366;-1.544;2022-09-09T12:38:13;97996.62;;;24.33;44.12
46574;BME280;32299;53.366;-1.544;2022-09-09T12:40:42;98003.77;;;24.38;44.15
46574;BME280;32299;53.366;-1.544;2022-09-09T12:43:22;98006.26;;;24.36;44.15
46574;BME280;32299;53.366;-1.544;2022-09-09T12:45:52;98014.92;;;24.34;44.10
46574;BME280;32299;53.366;-1.544;2022-09-09T12:48:27;98019.85;;;24.25;44.02
46574;BME280;32299;53.366;-1.544;2022-09-09T12:50:56;98020.49;;;24.16;43.91
46574;BME280;32299;53.366;-1.544;2022-09-09T12:53:26;98022.90;;;23.79;43.93
46574;BME280;32299;53.366;-1.544;2022-09-09T12:55:57;98023.29;;;23.95;43.96
46574;BME280;32299;53.366;-1.544;2022-09-09T12:58:26;98023.81;;;23.84;43.98
46574;BME280;32299;53.366;-1.544;2022-09-09T13:00:54;98026.29;;;23.98;44.41
46574;BME280;32299;53.366;-1.544;2022-09-09T13:03:22;98033.82;;;23.91;45.27
46574;BME280;32299;53.366;-1.544;2022-09-09T13:05:50;98054.96;;;23.86;44.95
46574;BME280;32299;53.366;-1.544;2022-09-09T13:08:18;98064.03;;;24.14;44.78
46574;BME280;32299;53.366;-1.544;2022-09-09T13:10:48;98058.03;;;23.89;43.86
46574;BME280;32299;53.366;-1.544;2022-09-09T13:13:20;98062.39;;;23.83;43.83